This is the latest recevied weather packets stored in our database for station/object OE2SWM. If no packets are shown the sender has not sent any weather packets the latest 10 day(s).
| Time | Temp. | Humidity | Pressure | Rain* | Wind** | Luminosity | Snow |
|---|---|---|---|---|---|---|---|
| 1777527000 | 7.78° C | 57% | 978 hPa | 0 mm | - | - | - |
| 1777526400 | 10.56° C | 49% | 978 hPa | 0 mm | - | - | - |
| 1777525800 | 15.56° C | 42% | 978 hPa | 0 mm | - | - | - |
| 1777525200 | 13.89° C | 47% | 978 hPa | 0 mm | - | - | - |
| 1777524600 | 11.67° C | 50% | 978 hPa | 0 mm | - | - | - |
| 1777524000 | 10° C | 56% | 978 hPa | 0 mm | - | - | - |
| 1777523400 | 5° C | 68% | 978 hPa | 0 mm | - | - | - |
| 1777522800 | 0° C | 84% | 977 hPa | 0 mm | - | - | - |
| 1777522200 | -3.33° C | 86% | 977 hPa | 0 mm | - | - | - |
| 1777521600 | -3.33° C | 89% | 977 hPa | 0 mm | - | - | - |
| 1777521000 | -3.33° C | 86% | 977 hPa | 0 mm | - | - | - |
| 1777520400 | -3.33° C | 87% | 977 hPa | 0 mm | - | - | - |
| 1777519800 | -2.22° C | 89% | 977 hPa | 0 mm | - | - | - |
| 1777519200 | -2.22° C | 88% | 977 hPa | 0 mm | - | - | - |
| 1777518600 | -2.22° C | 86% | 977 hPa | 0 mm | - | - | - |
| 1777518000 | -2.22° C | 88% | 977 hPa | 0 mm | - | - | - |
| 1777517400 | -1.11° C | 87% | 977 hPa | 0 mm | - | - | - |
| 1777516800 | -1.11° C | 86% | 977 hPa | 0 mm | - | - | - |
| 1777516200 | -1.11° C | 86% | 977 hPa | 0 mm | - | - | - |
| 1777515600 | -1.11° C | 84% | 977 hPa | 0 mm | - | - | - |
| 1777515000 | -1.11° C | 85% | 977 hPa | 0 mm | - | - | - |
| 1777514400 | -1.11° C | 87% | 977 hPa | 0 mm | - | - | - |
| 1777513800 | 0° C | 87% | 977 hPa | 0 mm | - | - | - |
| 1777512600 | 0° C | 83% | 977 hPa | 0 mm | - | - | - |
| 1777512000 | 0° C | 83% | 977 hPa | 0 mm | - | - | - |
* Rain latest hour (hover to see other rain measurements)
** Current wind speed in m/s (hover to see current wind gust speed)